createdAt,value
2022-12-15T00:00:52.736Z,-4.41
2022-12-15T00:03:38.460Z,-4.40
2022-12-15T00:06:25.081Z,-4.41
2022-12-15T00:09:14.292Z,-4.46
2022-12-15T00:12:01.511Z,-4.36
2022-12-15T00:14:47.973Z,-4.32
2022-12-15T00:17:35.052Z,-4.46
2022-12-15T00:20:20.720Z,-4.41
2022-12-15T00:23:06.589Z,-4.44
2022-12-15T00:25:52.572Z,-4.42
2022-12-15T00:28:40.380Z,-4.42
2022-12-15T00:31:26.671Z,-4.40
2022-12-15T00:34:13.130Z,-4.42
2022-12-15T00:36:59.703Z,-4.27
2022-12-15T00:39:28.885Z,-4.40
2022-12-15T00:41:57.562Z,-4.52
2022-12-15T00:44:27.865Z,-4.53
2022-12-15T00:46:55.964Z,-4.63
2022-12-15T00:49:42.694Z,-4.53
2022-12-15T00:52:29.580Z,-4.41
2022-12-15T00:55:15.784Z,-4.26
2022-12-15T00:58:02.615Z,-4.22
2022-12-15T01:00:50.485Z,-4.22
2022-12-15T01:03:39.472Z,-4.28
2022-12-15T01:06:25.897Z,-4.30
2022-12-15T01:09:11.923Z,-4.26
2022-12-15T01:11:58.742Z,-4.22
2022-12-15T01:14:45.658Z,-4.21
2022-12-15T01:17:33.605Z,-4.32
2022-12-15T01:20:19.130Z,-4.24
2022-12-15T01:22:48.866Z,-4.23
2022-12-15T01:25:18.899Z,-4.33
2022-12-15T01:27:48.796Z,-4.37
2022-12-15T01:30:20.379Z,-4.36
2022-12-15T01:32:51.009Z,-4.43
2022-12-15T01:35:20.451Z,-4.40
2022-12-15T01:37:50.130Z,-4.34
2022-12-15T01:40:38.196Z,-4.38
2022-12-15T01:43:12.981Z,-4.37
2022-12-15T01:46:00.690Z,-4.35
2022-12-15T01:48:40.043Z,-4.39
2022-12-15T01:51:15.400Z,-4.39
2022-12-15T01:53:47.352Z,-4.32
2022-12-15T01:56:19.324Z,-4.34
2022-12-15T01:58:52.848Z,-4.33
2022-12-15T02:01:22.480Z,-4.35
2022-12-15T02:03:52.891Z,-4.30
2022-12-15T02:06:24.593Z,-4.29
2022-12-15T02:08:57.117Z,-4.18
2022-12-15T02:11:59.191Z,-4.12
2022-12-15T02:14:44.841Z,-4.21
2022-12-15T02:17:24.563Z,-4.16
2022-12-15T02:20:27.635Z,-4.09
2022-12-15T02:23:19.124Z,-4.19
2022-12-15T02:26:10.810Z,-4.18
2022-12-15T02:28:54.590Z,-4.21
2022-12-15T02:31:50.104Z,-4.32
2022-12-15T02:34:26.654Z,-4.28
2022-12-15T02:36:59.854Z,-4.26
2022-12-15T02:39:28.748Z,-4.31
2022-12-15T02:41:57.154Z,-4.54
2022-12-15T02:44:30.743Z,-4.40
2022-12-15T02:47:24.595Z,-4.39
2022-12-15T02:50:12.582Z,-4.44
2022-12-15T02:52:54.007Z,-4.51
2022-12-15T02:55:29.982Z,-4.45
2022-12-15T02:58:04.333Z,-4.44
2022-12-15T03:00:38.597Z,-4.42
2022-12-15T03:03:09.167Z,-4.56
2022-12-15T03:05:37.984Z,-4.45
2022-12-15T03:08:06.621Z,-4.42
2022-12-15T03:10:34.822Z,-4.39
2022-12-15T03:13:03.399Z,-4.35
2022-12-15T03:15:35.552Z,-4.55
2022-12-15T03:18:04.557Z,-4.39
2022-12-15T03:20:35.087Z,-4.27
2022-12-15T03:23:03.722Z,-4.20
2022-12-15T03:25:32.282Z,-4.12
2022-12-15T03:28:00.952Z,-4.15
2022-12-15T03:30:29.912Z,-4.18
2022-12-15T03:32:58.688Z,-4.03
2022-12-15T03:35:27.537Z,-4.12
2022-12-15T03:37:58.129Z,-4.16
2022-12-15T03:40:26.370Z,-4.14
2022-12-15T03:42:57.393Z,-4.13
2022-12-15T03:45:27.628Z,-4.26
2022-12-15T03:47:57.665Z,-4.28
2022-12-15T03:50:29.154Z,-4.34
2022-12-15T03:53:00.681Z,-4.47
2022-12-15T03:55:29.805Z,-4.45
2022-12-15T03:57:59.279Z,-4.62
2022-12-15T04:00:28.569Z,-4.61
2022-12-15T04:02:57.091Z,-4.54
2022-12-15T04:05:28.301Z,-4.39
2022-12-15T04:08:00.120Z,-4.38
2022-12-15T04:10:34.624Z,-4.47
2022-12-15T04:13:05.117Z,-4.42
2022-12-15T04:15:34.324Z,-4.42
2022-12-15T04:18:03.869Z,-4.39
2022-12-15T04:20:31.349Z,-4.56
2022-12-15T04:23:01.223Z,-4.45
2022-12-15T04:25:47.009Z,-4.47
2022-12-15T04:28:33.458Z,-4.53
2022-12-15T04:31:23.010Z,-4.33
2022-12-15T04:34:11.197Z,-4.35
2022-12-15T04:36:59.326Z,-4.31
2022-12-15T04:39:47.056Z,-4.37
2022-12-15T04:42:33.731Z,-4.37
2022-12-15T04:45:22.396Z,-4.32
2022-12-15T04:48:08.031Z,-4.27
2022-12-15T04:50:54.368Z,-4.42
2022-12-15T04:53:40.495Z,-4.40
2022-12-15T04:56:31.902Z,-4.54
2022-12-15T04:59:17.949Z,-4.53
2022-12-15T05:02:04.261Z,-4.41
2022-12-15T05:04:50.020Z,-4.61
2022-12-15T05:07:36.143Z,-4.52
2022-12-15T05:10:22.799Z,-4.55
2022-12-15T05:13:10.202Z,-4.59
2022-12-15T05:15:56.242Z,-4.66
2022-12-15T05:18:43.426Z,-4.83
2022-12-15T05:21:29.713Z,-4.84
2022-12-15T05:24:16.036Z,-4.87
2022-12-15T05:27:01.586Z,-4.79
2022-12-15T05:29:49.723Z,-4.75
2022-12-15T05:32:18.843Z,-4.79
2022-12-15T05:34:47.334Z,-4.85
2022-12-15T05:37:16.533Z,-4.79
2022-12-15T05:39:45.261Z,-4.78
2022-12-15T05:42:14.027Z,-4.75
2022-12-15T05:44:44.349Z,-4.77
2022-12-15T05:47:13.476Z,-4.72
2022-12-15T05:49:42.661Z,-4.72
2022-12-15T05:52:11.892Z,-4.60
2022-12-15T05:54:40.506Z,-4.62
2022-12-15T05:57:08.939Z,-4.81
2022-12-15T05:59:37.685Z,-4.83
2022-12-15T06:02:08.519Z,-4.83
2022-12-15T06:04:37.923Z,-4.88
2022-12-15T06:07:06.976Z,-4.82
2022-12-15T06:09:36.181Z,-4.80
2022-12-15T06:12:05.351Z,-4.77
2022-12-15T06:14:34.734Z,-4.78
2022-12-15T06:17:04.284Z,-4.69
2022-12-15T06:19:34.725Z,-4.70
2022-12-15T06:22:05.673Z,-4.60
2022-12-15T06:24:34.139Z,-4.61
2022-12-15T06:27:02.827Z,-4.61
2022-12-15T06:29:31.790Z,-4.52
2022-12-15T06:32:00.005Z,-4.54
2022-12-15T06:34:29.183Z,-4.60
2022-12-15T06:36:59.548Z,-4.68
2022-12-15T06:39:28.900Z,-4.73
2022-12-15T06:41:57.390Z,-4.75
2022-12-15T06:44:26.094Z,-4.92
2022-12-15T06:46:54.775Z,-4.94
2022-12-15T06:49:23.295Z,-5.12
2022-12-15T06:51:51.885Z,-4.97
2022-12-15T06:54:21.836Z,-5.00
2022-12-15T06:56:50.281Z,-5.00
2022-12-15T06:59:19.085Z,-4.92
2022-12-15T07:01:47.809Z,-4.93
2022-12-15T07:04:16.674Z,-4.96
2022-12-15T07:06:46.578Z,-4.91
2022-12-15T07:09:20.095Z,-4.95
2022-12-15T07:11:51.743Z,-4.88
2022-12-15T07:14:20.347Z,-4.85
2022-12-15T07:16:48.939Z,-4.88
2022-12-15T07:19:20.982Z,-4.90
2022-12-15T07:21:53.055Z,-4.85
2022-12-15T07:24:23.459Z,-4.83
2022-12-15T07:26:53.713Z,-4.86
2022-12-15T07:29:23.715Z,-4.77
2022-12-15T07:31:52.354Z,-4.75
2022-12-15T07:34:21.964Z,-4.83
2022-12-15T07:36:52.835Z,-4.81
2022-12-15T07:39:22.384Z,-4.88
2022-12-15T07:41:53.398Z,-4.89
2022-12-15T07:44:23.763Z,-4.88
2022-12-15T07:46:53.298Z,-4.88
2022-12-15T07:49:23.715Z,-4.86
2022-12-15T07:51:52.815Z,-4.93
2022-12-15T07:54:22.728Z,-4.85
2022-12-15T07:56:54.077Z,-4.86
2022-12-15T07:59:23.786Z,-4.90
2022-12-15T08:01:54.065Z,-4.85
2022-12-15T08:04:22.498Z,-4.91
2022-12-15T08:06:52.005Z,-4.79
2022-12-15T08:09:20.486Z,-4.85
2022-12-15T08:11:49.286Z,-4.72
2022-12-15T08:14:21.862Z,-4.70
2022-12-15T08:16:50.939Z,-4.62
2022-12-15T08:19:20.154Z,-4.53
2022-12-15T08:21:49.497Z,-4.52
2022-12-15T08:24:19.728Z,-4.48
2022-12-15T08:26:50.014Z,-4.58
2022-12-15T08:32:08.997Z,-4.45
2022-12-15T08:34:37.792Z,-4.52
2022-12-15T08:37:06.375Z,-4.39
2022-12-15T08:39:34.872Z,-4.38
2022-12-15T08:42:03.159Z,-4.37
2022-12-15T08:44:33.063Z,-4.27
2022-12-15T08:47:01.584Z,-4.24
2022-12-15T08:49:31.155Z,-4.38
2022-12-15T08:51:59.663Z,-4.30
2022-12-15T08:54:28.038Z,-4.29
2022-12-15T08:56:57.421Z,-4.16
2022-12-15T08:59:26.436Z,-4.14
2022-12-15T09:01:56.384Z,-4.21
2022-12-15T09:04:25.394Z,-4.28
2022-12-15T09:06:53.948Z,-4.19
2022-12-15T09:09:23.230Z,-4.18
2022-12-15T09:11:51.772Z,-4.10
2022-12-15T09:14:27.073Z,-4.10
2022-12-15T09:16:58.890Z,-4.18
2022-12-15T09:19:28.274Z,-4.10
2022-12-15T09:21:56.732Z,-4.11
2022-12-15T09:24:33.927Z,-3.95
2022-12-15T09:27:04.287Z,-3.91
2022-12-15T09:29:32.920Z,-3.94
2022-12-15T09:32:06.583Z,-4.04
2022-12-15T09:34:38.885Z,-3.92
2022-12-15T09:37:08.346Z,-3.81
2022-12-15T09:39:38.056Z,-3.65
2022-12-15T09:42:07.484Z,-3.53
2022-12-15T09:44:36.851Z,-3.45
2022-12-15T09:47:20.855Z,-3.33
2022-12-15T09:49:59.850Z,-3.46
2022-12-15T09:52:32.004Z,-3.47
2022-12-15T09:55:02.972Z,-3.41
2022-12-15T09:57:45.338Z,-3.41
2022-12-15T10:00:21.911Z,-3.25
2022-12-15T10:03:11.211Z,-3.39
2022-12-15T10:06:17.711Z,-3.61
2022-12-15T10:08:52.205Z,-3.66
2022-12-15T10:11:26.551Z,-3.78
2022-12-15T10:14:02.840Z,-3.78
2022-12-15T10:16:37.858Z,-3.76
2022-12-15T10:19:13.373Z,-3.88
2022-12-15T10:21:44.041Z,-3.91
2022-12-15T10:24:44.570Z,-3.90
2022-12-15T10:27:23.696Z,-3.94
2022-12-15T10:30:02.089Z,-3.93
2022-12-15T10:32:44.156Z,-3.92
2022-12-15T10:35:22.683Z,-3.84
2022-12-15T10:37:53.455Z,-3.84
2022-12-15T10:40:50.467Z,-3.91
2022-12-15T10:43:38.378Z,-4.04
2022-12-15T10:46:16.074Z,-3.98
2022-12-15T10:48:48.439Z,-4.10
2022-12-15T10:51:23.723Z,-3.96
2022-12-15T10:53:55.805Z,-3.90
2022-12-15T10:59:25.915Z,-3.73
2022-12-15T11:01:54.828Z,-3.79
2022-12-15T11:04:28.759Z,-3.84
2022-12-15T11:07:01.922Z,-3.75
2022-12-15T11:09:36.640Z,-3.93
2022-12-15T11:12:35.902Z,-3.93
2022-12-15T11:15:04.724Z,-3.76
2022-12-15T11:17:43.151Z,-3.96
2022-12-15T11:20:22.263Z,-3.98
2022-12-15T11:22:54.845Z,-3.90
2022-12-15T11:25:33.206Z,-3.90
2022-12-15T11:28:07.274Z,-3.88
2022-12-15T11:30:40.366Z,-3.83
2022-12-15T11:33:11.077Z,-3.69
2022-12-15T11:35:58.823Z,-3.62
2022-12-15T11:38:36.029Z,-3.52
2022-12-15T11:41:17.395Z,-3.59
2022-12-15T11:44:06.446Z,-3.47
2022-12-15T11:46:43.276Z,-3.35
2022-12-15T11:49:50.468Z,-3.24
2022-12-15T11:52:46.861Z,-3.11
2022-12-15T11:55:29.718Z,-3.29
2022-12-15T11:58:39.331Z,-2.97
2022-12-15T12:01:20.233Z,-3.09
2022-12-15T12:04:02.186Z,-2.79
2022-12-15T12:06:37.668Z,-2.97
2022-12-15T12:09:28.065Z,-2.94
2022-12-15T12:12:03.424Z,-3.12
2022-12-15T12:14:43.408Z,-3.20
2022-12-15T12:17:21.776Z,-3.21
2022-12-15T12:19:55.484Z,-3.22
2022-12-15T12:22:30.143Z,-3.24
2022-12-15T12:25:02.630Z,-3.04
2022-12-15T12:27:39.917Z,-3.15
2022-12-15T12:30:15.379Z,-3.16
2022-12-15T12:32:54.441Z,-3.08
2022-12-15T12:35:33.468Z,-3.14
2022-12-15T12:38:04.510Z,-3.14
2022-12-15T12:40:46.920Z,-2.98
2022-12-15T12:43:32.424Z,-3.03
2022-12-15T12:46:07.757Z,-3.00
2022-12-15T12:48:41.801Z,-2.98
2022-12-15T12:51:27.528Z,-2.91
2022-12-15T12:53:57.958Z,-2.93
2022-12-15T12:56:37.308Z,-2.89
2022-12-15T12:59:26.981Z,-2.87
2022-12-15T13:01:58.501Z,-2.89
2022-12-15T13:04:43.061Z,-2.79
2022-12-15T13:07:30.338Z,-2.70
2022-12-15T13:10:14.725Z,-2.83
2022-12-15T13:12:52.860Z,-2.68
2022-12-15T13:15:37.741Z,-2.72
2022-12-15T13:18:16.727Z,-2.75
2022-12-15T13:20:50.533Z,-2.74
2022-12-15T13:23:38.806Z,-2.71
2022-12-15T13:26:16.150Z,-2.69
2022-12-15T13:28:52.564Z,-2.69
2022-12-15T13:31:35.295Z,-2.72
2022-12-15T13:34:29.355Z,-2.53
2022-12-15T13:37:01.812Z,-2.54
2022-12-15T13:39:59.843Z,-2.39
2022-12-15T13:42:51.388Z,-2.23
2022-12-15T13:45:51.211Z,-2.32
2022-12-15T13:48:36.895Z,-2.42
2022-12-15T13:51:24.788Z,-2.43
2022-12-15T13:54:01.225Z,-2.43
2022-12-15T13:56:53.173Z,-2.58
2022-12-15T13:59:29.953Z,-2.46
2022-12-15T14:01:58.612Z,-2.49
2022-12-15T14:04:28.832Z,-2.45
2022-12-15T14:06:59.975Z,-2.41
2022-12-15T14:09:34.807Z,-2.61
2022-12-15T14:12:04.986Z,-2.69
2022-12-15T14:14:37.719Z,-2.75
2022-12-15T14:17:10.432Z,-2.79
2022-12-15T14:19:42.110Z,-2.82
2022-12-15T14:22:28.673Z,-2.77
2022-12-15T14:25:06.075Z,-2.79
2022-12-15T14:27:38.161Z,-2.88
2022-12-15T14:30:30.061Z,-2.93
2022-12-15T14:33:04.898Z,-2.98
2022-12-15T14:35:38.487Z,-2.96
2022-12-15T14:38:10.146Z,-3.02
2022-12-15T14:40:42.431Z,-3.05
2022-12-15T14:43:24.311Z,-3.11
2022-12-15T14:45:58.861Z,-3.06
2022-12-15T14:48:42.792Z,-3.05
2022-12-15T14:51:14.532Z,-3.03
2022-12-15T14:53:45.153Z,-3.00
2022-12-15T14:56:30.644Z,-3.08
2022-12-15T14:59:04.125Z,-3.14
2022-12-15T15:01:42.881Z,-3.22
2022-12-15T15:03:10.011Z,-3.83
2022-12-15T15:04:26.084Z,-3.19
2022-12-15T15:06:58.943Z,-3.20
2022-12-15T15:09:29.736Z,-3.21
2022-12-15T15:12:07.006Z,-3.23
2022-12-15T15:14:40.803Z,-3.19
2022-12-15T15:17:19.082Z,-3.18
2022-12-15T15:19:52.924Z,-3.23
2022-12-15T15:22:40.031Z,-3.16
2022-12-15T15:25:36.205Z,-3.15
2022-12-15T15:28:25.387Z,-3.13
2022-12-15T15:30:57.878Z,-3.20
2022-12-15T15:33:28.558Z,-3.25
2022-12-15T15:35:59.474Z,-3.22
2022-12-15T15:38:33.535Z,-3.13
2022-12-15T15:41:04.503Z,-3.24
2022-12-15T15:43:34.846Z,-3.19
2022-12-15T15:46:09.334Z,-3.23
2022-12-15T15:48:44.620Z,-3.11
2022-12-15T15:51:15.244Z,-3.10
2022-12-15T15:53:44.183Z,-3.04
2022-12-15T15:56:21.303Z,-3.08
2022-12-15T15:58:51.864Z,-3.08
2022-12-15T16:01:21.301Z,-3.13
2022-12-15T16:03:50.695Z,-3.13
2022-12-15T16:06:21.271Z,-3.12
2022-12-15T16:08:54.076Z,-3.19
2022-12-15T16:11:26.222Z,-3.13
2022-12-15T16:13:56.989Z,-3.22
2022-12-15T16:16:30.477Z,-3.28
2022-12-15T16:18:59.435Z,-3.38
2022-12-15T16:21:29.413Z,-3.32
2022-12-15T16:24:00.431Z,-3.33
2022-12-15T16:26:31.842Z,-3.41
2022-12-15T16:29:01.772Z,-3.39
2022-12-15T16:31:40.649Z,-3.45
2022-12-15T16:34:10.380Z,-3.37
2022-12-15T16:36:39.262Z,-3.42
2022-12-15T16:39:22.760Z,-3.45
2022-12-15T16:41:51.832Z,-3.48
2022-12-15T16:44:23.948Z,-3.46
2022-12-15T16:46:55.263Z,-3.37
2022-12-15T16:49:40.023Z,-3.31
2022-12-15T16:52:19.946Z,-3.26
2022-12-15T16:54:52.184Z,-3.22
2022-12-15T16:57:21.022Z,-3.18
2022-12-15T16:59:51.525Z,-3.17
2022-12-15T17:02:28.180Z,-3.21
2022-12-15T17:04:57.671Z,-3.25
2022-12-15T17:07:28.215Z,-3.24
2022-12-15T17:09:57.749Z,-3.26
2022-12-15T17:12:26.351Z,-3.26
2022-12-15T17:14:58.916Z,-3.35
2022-12-15T17:17:29.772Z,-3.34
2022-12-15T17:20:28.725Z,-3.38
2022-12-15T17:22:49.567Z,-3.37
2022-12-15T17:25:37.556Z,-3.32
2022-12-15T17:28:18.368Z,-3.29
2022-12-15T17:30:50.773Z,-3.31
2022-12-15T17:33:21.392Z,-3.33
2022-12-15T17:35:52.623Z,-3.24
2022-12-15T17:38:23.039Z,-3.25
2022-12-15T17:40:53.382Z,-3.25
2022-12-15T17:43:24.086Z,-3.26
2022-12-15T17:45:56.397Z,-3.20
2022-12-15T17:48:26.038Z,-3.18
2022-12-15T17:50:55.402Z,-3.24
2022-12-15T17:53:27.753Z,-3.19
2022-12-15T17:55:57.746Z,-3.24
2022-12-15T17:58:28.692Z,-3.31
2022-12-15T18:01:00.189Z,-3.28
2022-12-15T18:03:29.869Z,-3.35
2022-12-15T18:05:59.737Z,-3.31
2022-12-15T18:08:29.992Z,-3.25
2022-12-15T18:11:00.186Z,-3.24
2022-12-15T18:13:35.414Z,-3.23
2022-12-15T18:16:07.648Z,-3.25
2022-12-15T18:18:37.626Z,-3.20
2022-12-15T18:21:17.121Z,-3.21
2022-12-15T18:23:47.869Z,-3.24
2022-12-15T18:26:17.091Z,-3.26
2022-12-15T18:28:45.727Z,-3.31
2022-12-15T18:31:22.517Z,-3.34
2022-12-15T18:33:51.807Z,-3.29
2022-12-15T18:36:21.151Z,-3.32
2022-12-15T18:38:50.983Z,-3.33
2022-12-15T18:41:21.912Z,-3.40
2022-12-15T18:43:51.020Z,-3.36
2022-12-15T18:46:22.848Z,-3.32
2022-12-15T18:48:52.288Z,-3.31
2022-12-15T18:51:24.677Z,-3.33
2022-12-15T18:53:54.182Z,-3.35
2022-12-15T18:56:24.621Z,-3.37
2022-12-15T18:58:55.134Z,-3.37
2022-12-15T19:01:29.136Z,-3.43
2022-12-15T19:03:58.032Z,-3.40
2022-12-15T19:06:35.429Z,-3.45
2022-12-15T19:09:07.581Z,-3.37
2022-12-15T19:11:37.634Z,-3.48
2022-12-15T19:14:32.599Z,-3.41
2022-12-15T19:17:19.719Z,-3.41
2022-12-15T19:20:05.391Z,-3.35
2022-12-15T19:22:34.115Z,-3.39
2022-12-15T19:25:06.074Z,-3.41
2022-12-15T19:27:34.555Z,-3.47
2022-12-15T19:30:03.328Z,-3.44
2022-12-15T19:32:33.886Z,-3.41
2022-12-15T19:35:02.763Z,-3.45
2022-12-15T19:37:33.901Z,-3.51
2022-12-15T19:40:04.023Z,-3.51
2022-12-15T19:42:37.425Z,-3.55
2022-12-15T19:45:16.953Z,-3.50
2022-12-15T19:47:47.791Z,-3.53
2022-12-15T19:50:18.316Z,-3.51
2022-12-15T19:52:49.468Z,-3.37
2022-12-15T19:55:19.389Z,-3.35
2022-12-15T19:57:48.216Z,-3.38
2022-12-15T20:00:21.504Z,-3.38
2022-12-15T20:02:53.145Z,-3.38
2022-12-15T20:05:22.847Z,-3.38
2022-12-15T20:07:52.683Z,-3.31
2022-12-15T20:10:27.862Z,-3.38
2022-12-15T20:13:00.984Z,-3.35
2022-12-15T20:15:29.833Z,-3.46
2022-12-15T20:18:01.863Z,-3.37
2022-12-15T20:20:31.698Z,-3.30
2022-12-15T20:23:05.697Z,-3.38
2022-12-15T20:25:37.669Z,-3.25
2022-12-15T20:28:08.910Z,-3.21
2022-12-15T20:30:38.971Z,-3.16
2022-12-15T20:33:09.299Z,-3.13
2022-12-15T20:35:38.846Z,-3.08
2022-12-15T20:38:22.283Z,-3.08
2022-12-15T20:40:51.362Z,-3.15
2022-12-15T20:43:24.467Z,-3.03
2022-12-15T20:46:03.683Z,-2.99
2022-12-15T20:48:35.882Z,-2.99
2022-12-15T20:51:09.266Z,-2.95
2022-12-15T20:53:39.079Z,-2.88
2022-12-15T20:56:08.499Z,-2.93
2022-12-15T20:58:40.152Z,-2.96
2022-12-15T21:01:19.103Z,-2.93
2022-12-15T21:03:51.845Z,-2.92
2022-12-15T21:06:21.590Z,-2.95
2022-12-15T21:08:51.856Z,-2.92
2022-12-15T21:11:24.718Z,-2.94
2022-12-15T21:13:56.671Z,-2.91
2022-12-15T21:16:30.630Z,-2.88
2022-12-15T21:19:19.728Z,-2.89
2022-12-15T21:21:52.802Z,-2.91
2022-12-15T21:24:27.246Z,-2.86
2022-12-15T21:26:56.645Z,-2.84
2022-12-15T21:29:27.821Z,-2.87
2022-12-15T21:31:56.681Z,-2.87
2022-12-15T21:34:26.737Z,-2.90
2022-12-15T21:36:55.932Z,-2.86
2022-12-15T21:39:29.889Z,-2.82
2022-12-15T21:42:01.073Z,-2.87
2022-12-15T21:44:30.033Z,-2.92
2022-12-15T21:46:59.567Z,-2.82
2022-12-15T21:49:29.896Z,-2.81
2022-12-15T21:52:00.317Z,-2.84
2022-12-15T21:54:32.405Z,-2.77
2022-12-15T21:57:02.931Z,-2.76
2022-12-15T21:59:33.869Z,-2.70
2022-12-15T22:02:03.098Z,-2.69
2022-12-15T22:04:35.250Z,-2.70
2022-12-15T22:07:04.197Z,-2.71
2022-12-15T22:09:34.265Z,-2.68
2022-12-15T22:12:02.719Z,-2.66
2022-12-15T22:14:35.032Z,-2.74
2022-12-15T22:17:15.687Z,-2.76
2022-12-15T22:19:46.528Z,-2.71
2022-12-15T22:22:15.964Z,-2.69
2022-12-15T22:24:44.523Z,-2.59
2022-12-15T22:27:20.384Z,-2.66
2022-12-15T22:29:49.378Z,-2.64
2022-12-15T22:32:18.896Z,-2.65
2022-12-15T22:34:49.229Z,-2.66
2022-12-15T22:37:17.817Z,-2.71
2022-12-15T22:39:46.442Z,-2.62
2022-12-15T22:42:22.749Z,-2.66
2022-12-15T22:45:00.030Z,-2.82
2022-12-15T22:47:28.893Z,-2.79
2022-12-15T22:49:58.603Z,-2.78
2022-12-15T22:52:26.850Z,-2.54
2022-12-15T22:54:57.046Z,-2.61
2022-12-15T22:57:28.113Z,-2.51
2022-12-15T23:00:01.023Z,-2.56
2022-12-15T23:02:32.609Z,-2.53
2022-12-15T23:05:03.800Z,-2.62
2022-12-15T23:07:32.817Z,-2.59
2022-12-15T23:10:19.092Z,-2.65
2022-12-15T23:12:48.027Z,-2.75
2022-12-15T23:15:34.367Z,-2.69
2022-12-15T23:18:03.057Z,-2.63
2022-12-15T23:20:33.085Z,-2.61
2022-12-15T23:23:01.465Z,-2.58
2022-12-15T23:25:30.101Z,-2.62
2022-12-15T23:27:58.691Z,-2.59
2022-12-15T23:30:27.647Z,-2.61
2022-12-15T23:32:56.353Z,-2.61
2022-12-15T23:35:25.270Z,-2.59
2022-12-15T23:37:55.549Z,-2.65
2022-12-15T23:40:24.046Z,-2.64
2022-12-15T23:42:53.966Z,-2.76
2022-12-15T23:45:24.084Z,-2.82
2022-12-15T23:47:52.559Z,-2.75
2022-12-15T23:50:22.783Z,-2.83
2022-12-15T23:52:51.925Z,-2.96
2022-12-15T23:55:22.728Z,-3.01
2022-12-15T23:57:51.002Z,-3.10
